sensor_id;sensor_type;location;lat;lon;timestamp;P1;durP1;ratioP1;P2;durP2;ratioP2
7969;SDS011;4030;52.362;9.206;2022-09-01T00:01:33;1.17;;;0.70;;
7969;SDS011;4030;52.362;9.206;2022-09-01T00:04:03;1.10;;;0.68;;
7969;SDS011;4030;52.362;9.206;2022-09-01T00:06:31;0.63;;;0.50;;
7969;SDS011;4030;52.362;9.206;2022-09-01T00:08:58;0.90;;;0.57;;
7969;SDS011;4030;52.362;9.206;2022-09-01T00:11:29;0.60;;;0.60;;
7969;SDS011;4030;52.362;9.206;2022-09-01T00:13:55;1.08;;;0.63;;
7969;SDS011;4030;52.362;9.206;2022-09-01T00:16:22;0.65;;;0.55;;
7969;SDS011;4030;52.362;9.206;2022-09-01T00:18:50;2.97;;;0.60;;
7969;SDS011;4030;52.362;9.206;2022-09-01T00:21:20;2.05;;;0.70;;
7969;SDS011;4030;52.362;9.206;2022-09-01T00:23:50;0.60;;;0.50;;
7969;SDS011;4030;52.362;9.206;2022-09-01T00:26:16;0.55;;;0.50;;
7969;SDS011;4030;52.362;9.206;2022-09-01T00:28:42;1.25;;;0.70;;
7969;SDS011;4030;52.362;9.206;2022-09-01T00:31:08;2.03;;;0.90;;
7969;SDS011;4030;52.362;9.206;2022-09-01T00:33:36;1.10;;;0.52;;
7969;SDS011;4030;52.362;9.206;2022-09-01T00:36:03;1.05;;;0.60;;
7969;SDS011;4030;52.362;9.206;2022-09-01T00:38:29;1.48;;;0.65;;
7969;SDS011;4030;52.362;9.206;2022-09-01T00:40:56;0.60;;;0.60;;
7969;SDS011;4030;52.362;9.206;2022-09-01T00:46:02;0.75;;;0.60;;
7969;SDS011;4030;52.362;9.206;2022-09-01T00:48:29;1.10;;;0.85;;
7969;SDS011;4030;52.362;9.206;2022-09-01T00:50:56;0.95;;;0.50;;
7969;SDS011;4030;52.362;9.206;2022-09-01T00:53:23;0.60;;;0.60;;
7969;SDS011;4030;52.362;9.206;2022-09-01T00:55:49;1.15;;;0.70;;
7969;SDS011;4030;52.362;9.206;2022-09-01T00:58:15;0.95;;;0.70;;
7969;SDS011;4030;52.362;9.206;2022-09-01T01:00:41;0.60;;;0.60;;
7969;SDS011;4030;52.362;9.206;2022-09-01T01:03:09;0.70;;;0.60;;
7969;SDS011;4030;52.362;9.206;2022-09-01T01:05:37;1.20;;;0.52;;
7969;SDS011;4030;52.362;9.206;2022-09-01T01:08:18;0.77;;;0.60;;
7969;SDS011;4030;52.362;9.206;2022-09-01T01:10:57;0.57;;;0.52;;
7969;SDS011;4030;52.362;9.206;2022-09-01T01:13:27;0.77;;;0.60;;
7969;SDS011;4030;52.362;9.206;2022-09-01T01:15:56;1.88;;;0.80;;
7969;SDS011;4030;52.362;9.206;2022-09-01T01:18:23;0.90;;;0.70;;
7969;SDS011;4030;52.362;9.206;2022-09-01T01:21:02;0.85;;;0.60;;
7969;SDS011;4030;52.362;9.206;2022-09-01T01:23:52;2.50;;;0.68;;
7969;SDS011;4030;52.362;9.206;2022-09-01T01:26:27;0.50;;;0.50;;
7969;SDS011;4030;52.362;9.206;2022-09-01T01:28:52;1.00;;;0.80;;
7969;SDS011;4030;52.362;9.206;2022-09-01T01:31:19;0.90;;;0.70;;
7969;SDS011;4030;52.362;9.206;2022-09-01T01:33:55;1.10;;;0.70;;
7969;SDS011;4030;52.362;9.206;2022-09-01T01:38:56;2.33;;;0.60;;
7969;SDS011;4030;52.362;9.206;2022-09-01T01:41:26;1.27;;;0.60;;
7969;SDS011;4030;52.362;9.206;2022-09-01T01:43:57;0.50;;;0.50;;
7969;SDS011;4030;52.362;9.206;2022-09-01T01:46:28;0.88;;;0.63;;
7969;SDS011;4030;52.362;9.206;2022-09-01T01:48:56;0.90;;;0.70;;
7969;SDS011;4030;52.362;9.206;2022-09-01T01:51:22;1.85;;;0.60;;
7969;SDS011;4030;52.362;9.206;2022-09-01T01:53:52;0.85;;;0.60;;
7969;SDS011;4030;52.362;9.206;2022-09-01T01:56:23;0.80;;;0.80;;
7969;SDS011;4030;52.362;9.206;2022-09-01T01:58:53;0.95;;;0.70;;
7969;SDS011;4030;52.362;9.206;2022-09-01T02:01:25;0.70;;;0.50;;
7969;SDS011;4030;52.362;9.206;2022-09-01T02:03:56;1.08;;;0.60;;
7969;SDS011;4030;52.362;9.206;2022-09-01T02:06:24;1.08;;;0.50;;
7969;SDS011;4030;52.362;9.206;2022-09-01T02:08:52;0.65;;;0.60;;
7969;SDS011;4030;52.362;9.206;2022-09-01T02:11:25;1.33;;;0.70;;
7969;SDS011;4030;52.362;9.206;2022-09-01T02:13:52;1.45;;;0.70;;
7969;SDS011;4030;52.362;9.206;2022-09-01T02:16:21;1.15;;;0.60;;
7969;SDS011;4030;52.362;9.206;2022-09-01T02:18:50;1.25;;;0.65;;
7969;SDS011;4030;52.362;9.206;2022-09-01T02:21:18;1.10;;;0.70;;
7969;SDS011;4030;52.362;9.206;2022-09-01T02:23:47;1.23;;;0.68;;
7969;SDS011;4030;52.362;9.206;2022-09-01T02:26:26;0.75;;;0.60;;
7969;SDS011;4030;52.362;9.206;2022-09-01T02:29:00;1.48;;;0.60;;
7969;SDS011;4030;52.362;9.206;2022-09-01T02:31:46;0.60;;;0.57;;
7969;SDS011;4030;52.362;9.206;2022-09-01T02:34:14;1.50;;;0.63;;
7969;SDS011;4030;52.362;9.206;2022-09-01T02:36:46;2.30;;;0.65;;
7969;SDS011;4030;52.362;9.206;2022-09-01T02:39:19;1.27;;;0.70;;
7969;SDS011;4030;52.362;9.206;2022-09-01T02:41:52;0.90;;;0.70;;
7969;SDS011;4030;52.362;9.206;2022-09-01T02:44:17;1.30;;;0.70;;
7969;SDS011;4030;52.362;9.206;2022-09-01T02:46:46;0.73;;;0.70;;
7969;SDS011;4030;52.362;9.206;2022-09-01T02:49:15;0.60;;;0.57;;
7969;SDS011;4030;52.362;9.206;2022-09-01T02:51:46;0.98;;;0.80;;
7969;SDS011;4030;52.362;9.206;2022-09-01T02:54:17;0.82;;;0.60;;
7969;SDS011;4030;52.362;9.206;2022-09-01T02:56:46;0.88;;;0.70;;
7969;SDS011;4030;52.362;9.206;2022-09-01T02:59:17;0.80;;;0.70;;
7969;SDS011;4030;52.362;9.206;2022-09-01T03:01:45;0.68;;;0.68;;
7969;SDS011;4030;52.362;9.206;2022-09-01T03:04:14;1.23;;;0.60;;
7969;SDS011;4030;52.362;9.206;2022-09-01T03:06:41;0.57;;;0.57;;
7969;SDS011;4030;52.362;9.206;2022-09-01T03:09:08;0.82;;;0.60;;
7969;SDS011;4030;52.362;9.206;2022-09-01T03:11:41;1.20;;;0.80;;
7969;SDS011;4030;52.362;9.206;2022-09-01T03:14:10;1.63;;;0.60;;
7969;SDS011;4030;52.362;9.206;2022-09-01T03:16:37;1.45;;;0.60;;
7969;SDS011;4030;52.362;9.206;2022-09-01T03:19:04;1.05;;;0.60;;
7969;SDS011;4030;52.362;9.206;2022-09-01T03:21:33;0.60;;;0.60;;
7969;SDS011;4030;52.362;9.206;2022-09-01T03:24:05;0.82;;;0.60;;
7969;SDS011;4030;52.362;9.206;2022-09-01T03:26:33;0.80;;;0.68;;
7969;SDS011;4030;52.362;9.206;2022-09-01T03:29:00;1.25;;;0.73;;
7969;SDS011;4030;52.362;9.206;2022-09-01T03:31:26;1.00;;;0.70;;
7969;SDS011;4030;52.362;9.206;2022-09-01T03:33:54;0.75;;;0.60;;
7969;SDS011;4030;52.362;9.206;2022-09-01T03:36:20;0.60;;;0.60;;
7969;SDS011;4030;52.362;9.206;2022-09-01T03:38:52;1.23;;;0.80;;
7969;SDS011;4030;52.362;9.206;2022-09-01T03:41:20;0.90;;;0.70;;
7969;SDS011;4030;52.362;9.206;2022-09-01T03:43:49;0.50;;;0.50;;
7969;SDS011;4030;52.362;9.206;2022-09-01T03:46:18;1.15;;;0.63;;
7969;SDS011;4030;52.362;9.206;2022-09-01T03:48:49;1.45;;;0.70;;
7969;SDS011;4030;52.362;9.206;2022-09-01T03:51:20;0.85;;;0.60;;
7969;SDS011;4030;52.362;9.206;2022-09-01T03:53:47;1.58;;;0.70;;
7969;SDS011;4030;52.362;9.206;2022-09-01T03:56:18;0.80;;;0.80;;
7969;SDS011;4030;52.362;9.206;2022-09-01T03:58:45;1.67;;;0.60;;
7969;SDS011;4030;52.362;9.206;2022-09-01T04:01:11;1.00;;;0.70;;
7969;SDS011;4030;52.362;9.206;2022-09-01T04:03:40;1.00;;;0.70;;
7969;SDS011;4030;52.362;9.206;2022-09-01T04:06:07;1.17;;;0.90;;
7969;SDS011;4030;52.362;9.206;2022-09-01T04:08:34;0.85;;;0.60;;
7969;SDS011;4030;52.362;9.206;2022-09-01T04:11:09;0.82;;;0.60;;
7969;SDS011;4030;52.362;9.206;2022-09-01T04:13:41;0.90;;;0.70;;
7969;SDS011;4030;52.362;9.206;2022-09-01T04:16:15;1.55;;;0.70;;
7969;SDS011;4030;52.362;9.206;2022-09-01T04:19:04;1.08;;;0.70;;
7969;SDS011;4030;52.362;9.206;2022-09-01T04:21:39;0.65;;;0.65;;
7969;SDS011;4030;52.362;9.206;2022-09-01T04:24:07;1.25;;;0.70;;
7969;SDS011;4030;52.362;9.206;2022-09-01T04:26:34;0.82;;;0.60;;
7969;SDS011;4030;52.362;9.206;2022-09-01T04:29:02;0.70;;;0.65;;
7969;SDS011;4030;52.362;9.206;2022-09-01T04:31:28;0.70;;;0.63;;
7969;SDS011;4030;52.362;9.206;2022-09-01T04:33:55;0.70;;;0.70;;
7969;SDS011;4030;52.362;9.206;2022-09-01T04:36:23;0.82;;;0.60;;
7969;SDS011;4030;52.362;9.206;2022-09-01T04:38:52;0.98;;;0.68;;
7969;SDS011;4030;52.362;9.206;2022-09-01T04:41:22;1.30;;;0.70;;
7969;SDS011;4030;52.362;9.206;2022-09-01T04:43:56;1.15;;;0.80;;
7969;SDS011;4030;52.362;9.206;2022-09-01T04:46:24;1.20;;;0.70;;
7969;SDS011;4030;52.362;9.206;2022-09-01T04:48:54;0.95;;;0.77;;
7969;SDS011;4030;52.362;9.206;2022-09-01T04:51:21;0.80;;;0.75;;
7969;SDS011;4030;52.362;9.206;2022-09-01T04:53:52;0.80;;;0.70;;
7969;SDS011;4030;52.362;9.206;2022-09-01T04:56:20;1.02;;;0.60;;
7969;SDS011;4030;52.362;9.206;2022-09-01T04:58:47;1.50;;;0.93;;
7969;SDS011;4030;52.362;9.206;2022-09-01T05:01:19;1.60;;;0.68;;
7969;SDS011;4030;52.362;9.206;2022-09-01T05:03:48;1.30;;;0.70;;
7969;SDS011;4030;52.362;9.206;2022-09-01T05:06:20;1.10;;;0.60;;
7969;SDS011;4030;52.362;9.206;2022-09-01T05:08:47;0.98;;;0.70;;
7969;SDS011;4030;52.362;9.206;2022-09-01T05:11:13;1.52;;;0.70;;
7969;SDS011;4030;52.362;9.206;2022-09-01T05:13:42;1.25;;;0.75;;
7969;SDS011;4030;52.362;9.206;2022-09-01T05:16:11;1.25;;;0.75;;
7969;SDS011;4030;52.362;9.206;2022-09-01T05:18:40;1.05;;;0.70;;
7969;SDS011;4030;52.362;9.206;2022-09-01T05:21:10;0.68;;;0.63;;
7969;SDS011;4030;52.362;9.206;2022-09-01T05:23:36;2.45;;;0.80;;
7969;SDS011;4030;52.362;9.206;2022-09-01T05:26:04;0.77;;;0.70;;
7969;SDS011;4030;52.362;9.206;2022-09-01T05:28:40;0.80;;;0.80;;
7969;SDS011;4030;52.362;9.206;2022-09-01T05:31:07;1.08;;;0.70;;
7969;SDS011;4030;52.362;9.206;2022-09-01T05:33:33;0.77;;;0.65;;
7969;SDS011;4030;52.362;9.206;2022-09-01T05:36:01;1.83;;;0.80;;
7969;SDS011;4030;52.362;9.206;2022-09-01T05:38:32;0.98;;;0.60;;
7969;SDS011;4030;52.362;9.206;2022-09-01T05:41:02;1.20;;;0.90;;
7969;SDS011;4030;52.362;9.206;2022-09-01T05:43:31;1.08;;;0.80;;
7969;SDS011;4030;52.362;9.206;2022-09-01T05:45:57;0.95;;;0.70;;
7969;SDS011;4030;52.362;9.206;2022-09-01T05:48:25;1.13;;;0.80;;
7969;SDS011;4030;52.362;9.206;2022-09-01T05:50:54;1.35;;;0.70;;
7969;SDS011;4030;52.362;9.206;2022-09-01T05:53:22;1.17;;;0.70;;
7969;SDS011;4030;52.362;9.206;2022-09-01T05:55:49;1.45;;;0.88;;
7969;SDS011;4030;52.362;9.206;2022-09-01T05:58:20;0.63;;;0.60;;
7969;SDS011;4030;52.362;9.206;2022-09-01T06:00:49;0.98;;;0.75;;
7969;SDS011;4030;52.362;9.206;2022-09-01T06:03:17;1.10;;;0.80;;
7969;SDS011;4030;52.362;9.206;2022-09-01T06:05:44;0.77;;;0.77;;
7969;SDS011;4030;52.362;9.206;2022-09-01T06:08:17;1.20;;;0.90;;
7969;SDS011;4030;52.362;9.206;2022-09-01T06:10:45;0.90;;;0.73;;
7969;SDS011;4030;52.362;9.206;2022-09-01T06:13:14;0.90;;;0.70;;
7969;SDS011;4030;52.362;9.206;2022-09-01T06:15:41;1.13;;;1.02;;
7969;SDS011;4030;52.362;9.206;2022-09-01T06:18:09;1.33;;;0.98;;
7969;SDS011;4030;52.362;9.206;2022-09-01T06:20:43;0.77;;;0.70;;
7969;SDS011;4030;52.362;9.206;2022-09-01T06:23:12;1.00;;;0.80;;
7969;SDS011;4030;52.362;9.206;2022-09-01T06:25:41;0.85;;;0.70;;
7969;SDS011;4030;52.362;9.206;2022-09-01T06:28:14;0.70;;;0.70;;
7969;SDS011;4030;52.362;9.206;2022-09-01T06:30:42;0.98;;;0.80;;
7969;SDS011;4030;52.362;9.206;2022-09-01T06:33:09;0.85;;;0.70;;
7969;SDS011;4030;52.362;9.206;2022-09-01T06:35:37;0.85;;;0.77;;
7969;SDS011;4030;52.362;9.206;2022-09-01T06:38:09;1.15;;;0.70;;
7969;SDS011;4030;52.362;9.206;2022-09-01T06:40:36;0.73;;;0.73;;
7969;SDS011;4030;52.362;9.206;2022-09-01T06:43:04;1.75;;;0.70;;
7969;SDS011;4030;52.362;9.206;2022-09-01T06:45:32;0.80;;;0.73;;
7969;SDS011;4030;52.362;9.206;2022-09-01T06:48:04;2.10;;;0.85;;
7969;SDS011;4030;52.362;9.206;2022-09-01T06:50:30;0.95;;;0.80;;
7969;SDS011;4030;52.362;9.206;2022-09-01T06:52:56;1.88;;;0.80;;
7969;SDS011;4030;52.362;9.206;2022-09-01T06:55:42;0.90;;;0.80;;
7969;SDS011;4030;52.362;9.206;2022-09-01T06:58:12;1.60;;;0.70;;
7969;SDS011;4030;52.362;9.206;2022-09-01T07:00:40;0.95;;;0.73;;
7969;SDS011;4030;52.362;9.206;2022-09-01T07:03:07;1.63;;;0.77;;
7969;SDS011;4030;52.362;9.206;2022-09-01T07:05:39;0.77;;;0.70;;
7969;SDS011;4030;52.362;9.206;2022-09-01T07:08:08;1.20;;;0.70;;
7969;SDS011;4030;52.362;9.206;2022-09-01T07:10:42;0.65;;;0.60;;
7969;SDS011;4030;52.362;9.206;2022-09-01T07:13:15;0.50;;;0.50;;
7969;SDS011;4030;52.362;9.206;2022-09-01T07:15:48;0.63;;;0.63;;
7969;SDS011;4030;52.362;9.206;2022-09-01T07:18:16;0.85;;;0.50;;
7969;SDS011;4030;52.362;9.206;2022-09-01T07:20:45;0.40;;;0.40;;
7969;SDS011;4030;52.362;9.206;2022-09-01T07:23:15;0.70;;;0.70;;
7969;SDS011;4030;52.362;9.206;2022-09-01T07:25:43;1.23;;;0.80;;
7969;SDS011;4030;52.362;9.206;2022-09-01T07:28:11;0.90;;;0.65;;
7969;SDS011;4030;52.362;9.206;2022-09-01T07:30:41;1.23;;;0.77;;
7969;SDS011;4030;52.362;9.206;2022-09-01T07:33:10;1.20;;;0.85;;
7969;SDS011;4030;52.362;9.206;2022-09-01T07:35:38;1.08;;;0.80;;
7969;SDS011;4030;52.362;9.206;2022-09-01T07:38:05;1.80;;;0.80;;
7969;SDS011;4030;52.362;9.206;2022-09-01T07:40:33;2.05;;;1.00;;
7969;SDS011;4030;52.362;9.206;2022-09-01T07:43:05;1.23;;;0.80;;
7969;SDS011;4030;52.362;9.206;2022-09-01T07:45:40;1.75;;;1.00;;
7969;SDS011;4030;52.362;9.206;2022-09-01T07:48:10;1.42;;;0.90;;
7969;SDS011;4030;52.362;9.206;2022-09-01T07:50:40;1.42;;;0.70;;
7969;SDS011;4030;52.362;9.206;2022-09-01T07:53:11;0.98;;;0.80;;
7969;SDS011;4030;52.362;9.206;2022-09-01T07:55:42;1.30;;;0.85;;
7969;SDS011;4030;52.362;9.206;2022-09-01T07:58:10;1.63;;;0.90;;
7969;SDS011;4030;52.362;9.206;2022-09-01T08:00:39;1.10;;;0.70;;
7969;SDS011;4030;52.362;9.206;2022-09-01T08:03:09;1.75;;;0.98;;
7969;SDS011;4030;52.362;9.206;2022-09-01T08:05:35;1.30;;;0.80;;
7969;SDS011;4030;52.362;9.206;2022-09-01T08:08:01;1.60;;;0.90;;
7969;SDS011;4030;52.362;9.206;2022-09-01T08:10:27;2.30;;;1.02;;
7969;SDS011;4030;52.362;9.206;2022-09-01T08:12:53;0.88;;;0.80;;
7969;SDS011;4030;52.362;9.206;2022-09-01T08:15:19;1.85;;;0.98;;
7969;SDS011;4030;52.362;9.206;2022-09-01T08:17:45;3.75;;;1.55;;
7969;SDS011;4030;52.362;9.206;2022-09-01T08:20:11;4.30;;;1.60;;
7969;SDS011;4030;52.362;9.206;2022-09-01T08:22:38;4.70;;;1.65;;
7969;SDS011;4030;52.362;9.206;2022-09-01T08:25:05;3.60;;;1.45;;
7969;SDS011;4030;52.362;9.206;2022-09-01T08:27:36;5.15;;;1.80;;
7969;SDS011;4030;52.362;9.206;2022-09-01T08:30:05;4.18;;;1.60;;
7969;SDS011;4030;52.362;9.206;2022-09-01T08:32:35;3.92;;;1.95;;
7969;SDS011;4030;52.362;9.206;2022-09-01T08:35:02;4.03;;;1.60;;
7969;SDS011;4030;52.362;9.206;2022-09-01T08:37:31;4.45;;;1.70;;
7969;SDS011;4030;52.362;9.206;2022-09-01T08:39:57;4.15;;;1.83;;
7969;SDS011;4030;52.362;9.206;2022-09-01T08:42:28;4.57;;;1.50;;
7969;SDS011;4030;52.362;9.206;2022-09-01T08:45:27;4.13;;;1.65;;
7969;SDS011;4030;52.362;9.206;2022-09-01T08:47:59;3.03;;;1.20;;
7969;SDS011;4030;52.362;9.206;2022-09-01T08:50:40;2.38;;;1.20;;
7969;SDS011;4030;52.362;9.206;2022-09-01T08:53:26;2.75;;;1.33;;
7969;SDS011;4030;52.362;9.206;2022-09-01T08:55:59;2.30;;;1.08;;
7969;SDS011;4030;52.362;9.206;2022-09-01T08:58:27;2.55;;;1.13;;
7969;SDS011;4030;52.362;9.206;2022-09-01T09:00:56;2.28;;;1.00;;
7969;SDS011;4030;52.362;9.206;2022-09-01T09:03:35;5.13;;;1.48;;
7969;SDS011;4030;52.362;9.206;2022-09-01T09:06:28;2.78;;;1.10;;
7969;SDS011;4030;52.362;9.206;2022-09-01T09:09:05;2.22;;;0.98;;
7969;SDS011;4030;52.362;9.206;2022-09-01T09:17:14;2.60;;;1.20;;
7969;SDS011;4030;52.362;9.206;2022-09-01T09:19:44;1.45;;;0.80;;
7969;SDS011;4030;52.362;9.206;2022-09-01T09:22:14;1.83;;;0.95;;
7969;SDS011;4030;52.362;9.206;2022-09-01T09:29:48;2.08;;;0.82;;
7969;SDS011;4030;52.362;9.206;2022-09-01T09:32:17;1.33;;;0.90;;
7969;SDS011;4030;52.362;9.206;2022-09-01T09:34:45;2.42;;;1.00;;
7969;SDS011;4030;52.362;9.206;2022-09-01T09:37:25;1.58;;;0.82;;
7969;SDS011;4030;52.362;9.206;2022-09-01T09:45:24;1.63;;;0.80;;
7969;SDS011;4030;52.362;9.206;2022-09-01T09:47:57;3.40;;;0.80;;
7969;SDS011;4030;52.362;9.206;2022-09-01T09:55:56;2.20;;;0.80;;
7969;SDS011;4030;52.362;9.206;2022-09-01T09:58:37;1.23;;;0.70;;
7969;SDS011;4030;52.362;9.206;2022-09-01T10:01:07;1.23;;;0.75;;
7969;SDS011;4030;52.362;9.206;2022-09-01T10:06:56;0.65;;;0.52;;
7969;SDS011;4030;52.362;9.206;2022-09-01T10:11:49;1.55;;;0.63;;
7969;SDS011;4030;52.362;9.206;2022-09-01T10:14:22;2.55;;;0.80;;
7969;SDS011;4030;52.362;9.206;2022-09-01T10:17:04;0.90;;;0.70;;
7969;SDS011;4030;52.362;9.206;2022-09-01T10:19:37;1.00;;;0.60;;
7969;SDS011;4030;52.362;9.206;2022-09-01T10:22:19;1.52;;;0.80;;
7969;SDS011;4030;52.362;9.206;2022-09-01T10:24:46;2.15;;;0.77;;
7969;SDS011;4030;52.362;9.206;2022-09-01T10:27:15;1.50;;;0.60;;
7969;SDS011;4030;52.362;9.206;2022-09-01T10:30:06;2.20;;;0.70;;
7969;SDS011;4030;52.362;9.206;2022-09-01T10:32:39;2.58;;;1.00;;
7969;SDS011;4030;52.362;9.206;2022-09-01T10:35:17;0.50;;;0.50;;
7969;SDS011;4030;52.362;9.206;2022-09-01T10:38:01;1.80;;;0.63;;
7969;SDS011;4030;52.362;9.206;2022-09-01T10:48:44;0.88;;;0.60;;
7969;SDS011;4030;52.362;9.206;2022-09-01T10:53:57;2.47;;;0.50;;
7969;SDS011;4030;52.362;9.206;2022-09-01T10:59:29;1.20;;;0.90;;
7969;SDS011;4030;52.362;9.206;2022-09-01T11:09:47;2.90;;;1.10;;
7969;SDS011;4030;52.362;9.206;2022-09-01T11:12:49;1.60;;;1.25;;
7969;SDS011;4030;52.362;9.206;2022-09-01T11:15:54;1.33;;;0.90;;
7969;SDS011;4030;52.362;9.206;2022-09-01T11:18:24;0.90;;;0.90;;
7969;SDS011;4030;52.362;9.206;2022-09-01T11:20:55;1.75;;;0.85;;
7969;SDS011;4030;52.362;9.206;2022-09-01T11:23:49;1.10;;;0.85;;
7969;SDS011;4030;52.362;9.206;2022-09-01T11:28:56;0.65;;;0.60;;
7969;SDS011;4030;52.362;9.206;2022-09-01T11:34:10;1.55;;;0.70;;
7969;SDS011;4030;52.362;9.206;2022-09-01T11:47:07;0.70;;;0.55;;
7969;SDS011;4030;52.362;9.206;2022-09-01T11:49:48;4.55;;;2.35;;
7969;SDS011;4030;52.362;9.206;2022-09-01T11:52:20;3.20;;;1.90;;
7969;SDS011;4030;52.362;9.206;2022-09-01T11:54:50;2.92;;;1.52;;
7969;SDS011;4030;52.362;9.206;2022-09-01T11:57:37;2.63;;;1.55;;
7969;SDS011;4030;52.362;9.206;2022-09-01T12:00:06;2.15;;;1.20;;
7969;SDS011;4030;52.362;9.206;2022-09-01T12:02:40;1.10;;;0.90;;
7969;SDS011;4030;52.362;9.206;2022-09-01T12:05:28;1.50;;;0.80;;
7969;SDS011;4030;52.362;9.206;2022-09-01T12:07:57;2.15;;;0.80;;
7969;SDS011;4030;52.362;9.206;2022-09-01T12:10:34;1.48;;;0.57;;
7969;SDS011;4030;52.362;9.206;2022-09-01T12:15:32;1.13;;;0.60;;
7969;SDS011;4030;52.362;9.206;2022-09-01T12:20:47;1.75;;;0.50;;
7969;SDS011;4030;52.362;9.206;2022-09-01T12:23:17;0.90;;;0.50;;
7969;SDS011;4030;52.362;9.206;2022-09-01T12:28:32;2.65;;;0.60;;
7969;SDS011;4030;52.362;9.206;2022-09-01T12:30:59;0.93;;;0.50;;
7969;SDS011;4030;52.362;9.206;2022-09-01T12:33:32;0.43;;;0.40;;
7969;SDS011;4030;52.362;9.206;2022-09-01T12:38:56;1.25;;;0.60;;
7969;SDS011;4030;52.362;9.206;2022-09-01T12:45:03;0.40;;;0.40;;
7969;SDS011;4030;52.362;9.206;2022-09-01T12:49:57;4.53;;;0.50;;
7969;SDS011;4030;52.362;9.206;2022-09-01T12:52:31;0.98;;;0.43;;
7969;SDS011;4030;52.362;9.206;2022-09-01T12:57:27;1.08;;;0.40;;
7969;SDS011;4030;52.362;9.206;2022-09-01T13:02:36;0.50;;;0.50;;
7969;SDS011;4030;52.362;9.206;2022-09-01T13:05:22;0.40;;;0.40;;
7969;SDS011;4030;52.362;9.206;2022-09-01T13:07:48;0.52;;;0.43;;
7969;SDS011;4030;52.362;9.206;2022-09-01T13:10:19;0.95;;;0.50;;
7969;SDS011;4030;52.362;9.206;2022-09-01T13:12:46;1.38;;;0.45;;
7969;SDS011;4030;52.362;9.206;2022-09-01T13:15:12;1.00;;;0.50;;
7969;SDS011;4030;52.362;9.206;2022-09-01T13:17:38;2.13;;;0.50;;
7969;SDS011;4030;52.362;9.206;2022-09-01T13:20:05;1.48;;;0.75;;
7969;SDS011;4030;52.362;9.206;2022-09-01T13:22:32;3.30;;;0.77;;
7969;SDS011;4030;52.362;9.206;2022-09-01T13:24:59;2.60;;;1.27;;
7969;SDS011;4030;52.362;9.206;2022-09-01T13:27:25;1.00;;;0.80;;
7969;SDS011;4030;52.362;9.206;2022-09-01T13:29:51;1.27;;;0.77;;
7969;SDS011;4030;52.362;9.206;2022-09-01T13:32:18;1.58;;;0.77;;
7969;SDS011;4030;52.362;9.206;2022-09-01T13:34:46;1.13;;;0.80;;
7969;SDS011;4030;52.362;9.206;2022-09-01T13:37:13;0.80;;;0.68;;
7969;SDS011;4030;52.362;9.206;2022-09-01T13:39:39;1.30;;;0.70;;
7969;SDS011;4030;52.362;9.206;2022-09-01T13:42:04;2.03;;;0.70;;
7969;SDS011;4030;52.362;9.206;2022-09-01T13:44:30;3.50;;;0.90;;
7969;SDS011;4030;52.362;9.206;2022-09-01T13:46:57;3.10;;;1.27;;
7969;SDS011;4030;52.362;9.206;2022-09-01T13:49:22;1.70;;;1.10;;
7969;SDS011;4030;52.362;9.206;2022-09-01T13:51:51;2.58;;;1.40;;
7969;SDS011;4030;52.362;9.206;2022-09-01T13:54:17;6.55;;;2.00;;
7969;SDS011;4030;52.362;9.206;2022-09-01T13:56:44;3.00;;;1.80;;
7969;SDS011;4030;52.362;9.206;2022-09-01T13:59:10;2.22;;;1.60;;
7969;SDS011;4030;52.362;9.206;2022-09-01T14:01:36;2.22;;;1.60;;
7969;SDS011;4030;52.362;9.206;2022-09-01T14:04:04;1.80;;;1.30;;
7969;SDS011;4030;52.362;9.206;2022-09-01T14:06:31;2.08;;;1.35;;
7969;SDS011;4030;52.362;9.206;2022-09-01T14:08:56;2.50;;;1.40;;
7969;SDS011;4030;52.362;9.206;2022-09-01T14:11:23;3.17;;;1.20;;
7969;SDS011;4030;52.362;9.206;2022-09-01T14:13:50;1.52;;;1.00;;
7969;SDS011;4030;52.362;9.206;2022-09-01T14:16:16;1.95;;;1.00;;
7969;SDS011;4030;52.362;9.206;2022-09-01T14:18:42;1.92;;;0.98;;
7969;SDS011;4030;52.362;9.206;2022-09-01T14:21:09;3.20;;;1.00;;
7969;SDS011;4030;52.362;9.206;2022-09-01T14:23:38;1.23;;;0.85;;
7969;SDS011;4030;52.362;9.206;2022-09-01T14:26:09;1.95;;;0.80;;
7969;SDS011;4030;52.362;9.206;2022-09-01T14:28:38;1.75;;;0.70;;
7969;SDS011;4030;52.362;9.206;2022-09-01T14:31:09;1.48;;;0.68;;
7969;SDS011;4030;52.362;9.206;2022-09-01T14:33:41;2.05;;;0.80;;
7969;SDS011;4030;52.362;9.206;2022-09-01T14:36:08;2.85;;;0.70;;
7969;SDS011;4030;52.362;9.206;2022-09-01T14:38:44;1.52;;;0.73;;
7969;SDS011;4030;52.362;9.206;2022-09-01T14:41:13;0.90;;;0.60;;
7969;SDS011;4030;52.362;9.206;2022-09-01T14:43:45;0.68;;;0.50;;
7969;SDS011;4030;52.362;9.206;2022-09-01T14:46:10;3.08;;;0.80;;
7969;SDS011;4030;52.362;9.206;2022-09-01T14:48:39;2.13;;;0.80;;
7969;SDS011;4030;52.362;9.206;2022-09-01T14:51:06;2.75;;;1.40;;
7969;SDS011;4030;52.362;9.206;2022-09-01T14:53:34;1.63;;;1.10;;
7969;SDS011;4030;52.362;9.206;2022-09-01T14:56:00;1.35;;;0.80;;
7969;SDS011;4030;52.362;9.206;2022-09-01T14:58:27;2.55;;;0.70;;
7969;SDS011;4030;52.362;9.206;2022-09-01T15:00:54;1.38;;;0.73;;
7969;SDS011;4030;52.362;9.206;2022-09-01T15:03:21;0.63;;;0.50;;
7969;SDS011;4030;52.362;9.206;2022-09-01T15:05:50;0.57;;;0.50;;
7969;SDS011;4030;52.362;9.206;2022-09-01T15:08:17;0.60;;;0.50;;
7969;SDS011;4030;52.362;9.206;2022-09-01T15:10:43;0.70;;;0.40;;
7969;SDS011;4030;52.362;9.206;2022-09-01T15:13:09;0.85;;;0.55;;
7969;SDS011;4030;52.362;9.206;2022-09-01T15:15:34;1.02;;;0.50;;
7969;SDS011;4030;52.362;9.206;2022-09-01T15:18:01;1.55;;;0.50;;
7969;SDS011;4030;52.362;9.206;2022-09-01T15:20:28;1.10;;;0.50;;
7969;SDS011;4030;52.362;9.206;2022-09-01T15:23:09;0.93;;;0.50;;
7969;SDS011;4030;52.362;9.206;2022-09-01T15:25:44;1.30;;;0.57;;
7969;SDS011;4030;52.362;9.206;2022-09-01T15:28:11;0.40;;;0.40;;
7969;SDS011;4030;52.362;9.206;2022-09-01T15:30:38;1.27;;;0.40;;
7969;SDS011;4030;52.362;9.206;2022-09-01T15:33:04;0.88;;;0.47;;
7969;SDS011;4030;52.362;9.206;2022-09-01T15:35:32;0.50;;;0.40;;
7969;SDS011;4030;52.362;9.206;2022-09-01T15:37:58;0.55;;;0.40;;
7969;SDS011;4030;52.362;9.206;2022-09-01T15:40:24;0.88;;;0.50;;
7969;SDS011;4030;52.362;9.206;2022-09-01T15:42:51;1.17;;;0.52;;
7969;SDS011;4030;52.362;9.206;2022-09-01T15:45:19;0.77;;;0.65;;
7969;SDS011;4030;52.362;9.206;2022-09-01T15:47:47;1.13;;;0.65;;
7969;SDS011;4030;52.362;9.206;2022-09-01T15:50:14;0.80;;;0.50;;
7969;SDS011;4030;52.362;9.206;2022-09-01T15:52:47;1.15;;;0.60;;
7969;SDS011;4030;52.362;9.206;2022-09-01T15:55:21;0.68;;;0.57;;
7969;SDS011;4030;52.362;9.206;2022-09-01T15:58:05;0.77;;;0.45;;
7969;SDS011;4030;52.362;9.206;2022-09-01T16:00:31;1.65;;;0.52;;
7969;SDS011;4030;52.362;9.206;2022-09-01T16:02:58;1.08;;;0.50;;
7969;SDS011;4030;52.362;9.206;2022-09-01T16:05:26;0.65;;;0.60;;
7969;SDS011;4030;52.362;9.206;2022-09-01T16:07:56;1.35;;;0.50;;
7969;SDS011;4030;52.362;9.206;2022-09-01T16:10:21;0.75;;;0.47;;
7969;SDS011;4030;52.362;9.206;2022-09-01T16:12:47;0.45;;;0.45;;
7969;SDS011;4030;52.362;9.206;2022-09-01T16:15:15;0.63;;;0.40;;
7969;SDS011;4030;52.362;9.206;2022-09-01T16:17:50;0.88;;;0.50;;
7969;SDS011;4030;52.362;9.206;2022-09-01T16:20:43;2.08;;;0.57;;
7969;SDS011;4030;52.362;9.206;2022-09-01T16:23:32;0.65;;;0.50;;
7969;SDS011;4030;52.362;9.206;2022-09-01T16:26:16;1.45;;;0.70;;
7969;SDS011;4030;52.362;9.206;2022-09-01T16:28:47;1.85;;;0.60;;
7969;SDS011;4030;52.362;9.206;2022-09-01T16:31:22;0.70;;;0.40;;
7969;SDS011;4030;52.362;9.206;2022-09-01T16:33:52;1.55;;;0.70;;
7969;SDS011;4030;52.362;9.206;2022-09-01T16:39:42;1.75;;;0.50;;
7969;SDS011;4030;52.362;9.206;2022-09-01T16:47:35;0.82;;;0.60;;
7969;SDS011;4030;52.362;9.206;2022-09-01T16:50:15;1.58;;;0.50;;
7969;SDS011;4030;52.362;9.206;2022-09-01T16:56:39;1.08;;;0.50;;
7969;SDS011;4030;52.362;9.206;2022-09-01T17:05:39;0.93;;;0.50;;
7969;SDS011;4030;52.362;9.206;2022-09-01T17:08:31;0.50;;;0.50;;
7969;SDS011;4030;52.362;9.206;2022-09-01T17:11:07;0.52;;;0.50;;
7969;SDS011;4030;52.362;9.206;2022-09-01T17:13:43;2.15;;;0.60;;
7969;SDS011;4030;52.362;9.206;2022-09-01T17:16:31;0.90;;;0.55;;
7969;SDS011;4030;52.362;9.206;2022-09-01T17:19:09;0.40;;;0.40;;
7969;SDS011;4030;52.362;9.206;2022-09-01T17:21:42;0.93;;;0.50;;
7969;SDS011;4030;52.362;9.206;2022-09-01T17:24:36;0.50;;;0.50;;
7969;SDS011;4030;52.362;9.206;2022-09-01T17:27:19;1.05;;;0.70;;